Col Jabara, KS

06:50 CDT le 30 septembre 2014 (GMT -0500)
McConnell Air Force Base | Change Station
CLOSE
Current Station
Aéroport
Location: McConnell AFB,
Altitude: 1371 ft
Stations météo à proximité
4.1 Earthquake: Perry, Oklahoma (8 hours ago)  

Alt. 1371 ft 37.62 °N, 97.27 °W | Updated 52 minutes ago

Ciel dégagé
Ciel dégagé
65 ° F
Paraît 65 ° F
N
8
Vent Variable Vent de SSE

Aujourd'hui
Haut(e) -- | Bas -- ° F
--% Risque de précip.
Hier
Haut(e) -- | Bas -- ° F
Precip. -- pouce
7:23 AM 7:13 PM
Lune montante, 36% visible
Pression 29.89 pouce
Visibilité 10.0 Miles terrestres
Nuages Ciel dégagé
Point de rosée 60 ° F
Humidité 86%
Précipitations 0.00 pouce
Profondeur de la couche neigeuse Non disponible.
UV 0 sur 12
Pollen 4.50 sur 12
Qualité de l'air Non disponible.
Flu Activity Non disponible.
METAR KIAB 301058Z AUTO 15007KT 10SM CLR 18/16 A2991 RMK AO2 SLP120 T01820158

More Conditions Fewer Conditions

Pression 29.89 pouce
Visibilité 10.0 Miles terrestres
Nuages Ciel dégagé
Point de rosée 60 ° F
Humidité 86%
Précipitations 0.00 pouce
Profondeur de la couche neigeuse Non disponible.
UV 0 sur 12
Pollen 4.50 sur 12
Qualité de l'air Non disponible.
Flu Activity Non disponible.
METAR KIAB 301058Z AUTO 15007KT 10SM CLR 18/16 A2991 RMK AO2 SLP120 T01820158

More Conditions Fewer Conditions

10-Day Weather Forecast

Almanac

Astronomie

Sep. 30, 2014 Lever Coucher
Temps réel 07:23 CDT 19:13 CDT
Crépuscule civil 06:57 CDT 19:39 CDT
Crépuscule nautique 06:27 CDT 20:09 CDT
Crépuscule astronomique 05:56 CDT 20:40 CDT
Lune 13:27 CDT 23:49 CDT
Durée de lumière visible 12h 42m
Longueur du jour
11h 49m
Tomorrow will be 2m 24s shorter.
Lune montante, 36% of the Moon is Illuminated
Aujourd'hui
Lune montante
Oct 1
Premier quartier
Oct 8
Pleine lune
Oct 15
Dernier quartier
Oct 23
Nouveau

Extrêmes aujourd'hui

State Highs State Lows

Community

WunderPhotos

Upload Photos

1,757,618 Photos téléchargées !

Nearby

Épaisseur de neige

Station Depth Altitude
Pas de nouvelles chutes de neige

Activité sismique

Ville Distance Mag. Time & Date
Perry, Oklahoma 107 Miles terrestres 3.5 01:06 CDT
2014-09-30
Perry, Oklahoma 107 Miles terrestres 3.3 00:58 CDT
2014-09-30
Perry, Oklahoma 107 Miles terrestres 2.7 22:18 CDT
2014-09-29
Perry, Oklahoma 106 Miles terrestres 4.1 22:01 CDT
2014-09-29
Minimum magnitude displayed is 2.5.

Températures des eaux côtières

Lieu Température
Aucun rapport de station

Stations météo à proximité